Terminal Aerodrome Forecast
Issued by NWS Shreveport, LA

Current Version | Previous Version | Text Only | Print | Product List | Glossary On
Versions: 1 2 3 4 5 6 7 8 9 10 11 12 13 14
493
FTUS44 KSHV 212000 AAA
TAFLFK
TAF AMD
KLFK 212000Z 2120/2218 14008KT P6SM -RA VCTS SCT010 OVC035CB
      TEMPO 2120/2122 VRB08KT 5SM -TSRA
     FM220300 14011KT 5SM TSRA BR SCT010 OVC020CB
     FM221000 30007KT P6SM OVC010
     FM221500 30013G18KT P6SM OVC025=

USA.gov is the U.S. government's official web portal to all federal, state and local government web resources and services.